sensor_id;sensor_type;location;lat;lon;timestamp;temperature;humidity
360;DHT22;168;48.872;9.226;2023-02-28T00:01:27;-0.40;79.70
360;DHT22;168;48.872;9.226;2023-02-28T00:03:54;-0.40;80.20
360;DHT22;168;48.872;9.226;2023-02-28T00:06:22;-0.50;80.80
360;DHT22;168;48.872;9.226;2023-02-28T00:08:51;-0.50;80.80
360;DHT22;168;48.872;9.226;2023-02-28T00:11:18;-0.40;81.00
360;DHT22;168;48.872;9.226;2023-02-28T00:13:47;-0.40;81.00
360;DHT22;168;48.872;9.226;2023-02-28T00:16:17;-0.40;81.30
360;DHT22;168;48.872;9.226;2023-02-28T00:18:45;-0.50;81.50
360;DHT22;168;48.872;9.226;2023-02-28T00:21:13;-0.40;81.60
360;DHT22;168;48.872;9.226;2023-02-28T00:23:41;-0.40;81.70
360;DHT22;168;48.872;9.226;2023-02-28T00:26:10;-0.40;81.90
360;DHT22;168;48.872;9.226;2023-02-28T00:28:37;-0.30;81.90
360;DHT22;168;48.872;9.226;2023-02-28T00:31:04;-0.40;82.30
360;DHT22;168;48.872;9.226;2023-02-28T00:33:32;-0.40;82.80
360;DHT22;168;48.872;9.226;2023-02-28T00:36:04;-0.40;83.20
360;DHT22;168;48.872;9.226;2023-02-28T00:38:32;-0.50;83.90
360;DHT22;168;48.872;9.226;2023-02-28T00:41:00;-0.50;84.00
360;DHT22;168;48.872;9.226;2023-02-28T00:43:33;-0.50;84.30
360;DHT22;168;48.872;9.226;2023-02-28T00:46:01;-0.50;84.40
360;DHT22;168;48.872;9.226;2023-02-28T00:48:28;-0.50;84.70
360;DHT22;168;48.872;9.226;2023-02-28T00:50:55;-0.50;84.90
360;DHT22;168;48.872;9.226;2023-02-28T00:53:23;-0.50;85.30
360;DHT22;168;48.872;9.226;2023-02-28T00:55:51;-0.50;85.70
360;DHT22;168;48.872;9.226;2023-02-28T00:58:18;-0.60;86.50
360;DHT22;168;48.872;9.226;2023-02-28T01:00:47;-0.60;86.40
360;DHT22;168;48.872;9.226;2023-02-28T01:05:43;-0.50;86.70
360;DHT22;168;48.872;9.226;2023-02-28T01:08:10;-0.50;87.10
360;DHT22;168;48.872;9.226;2023-02-28T01:10:38;-0.50;87.10
360;DHT22;168;48.872;9.226;2023-02-28T01:13:05;-0.50;87.70
360;DHT22;168;48.872;9.226;2023-02-28T01:15:33;-0.60;88.10
360;DHT22;168;48.872;9.226;2023-02-28T01:18:02;-0.50;88.00
360;DHT22;168;48.872;9.226;2023-02-28T01:20:29;-0.50;87.90
360;DHT22;168;48.872;9.226;2023-02-28T01:22:56;-0.50;88.00
360;DHT22;168;48.872;9.226;2023-02-28T01:25:24;-0.50;88.20
360;DHT22;168;48.872;9.226;2023-02-28T01:27:51;-0.50;88.60
360;DHT22;168;48.872;9.226;2023-02-28T01:30:19;-0.50;88.40
360;DHT22;168;48.872;9.226;2023-02-28T01:32:46;-0.40;88.50
360;DHT22;168;48.872;9.226;2023-02-28T01:35:15;-0.40;88.30
360;DHT22;168;48.872;9.226;2023-02-28T01:37:42;-0.50;88.40
360;DHT22;168;48.872;9.226;2023-02-28T01:40:11;-0.50;88.80
360;DHT22;168;48.872;9.226;2023-02-28T01:42:38;-0.60;89.20
360;DHT22;168;48.872;9.226;2023-02-28T01:45:20;-0.60;89.40
360;DHT22;168;48.872;9.226;2023-02-28T01:47:50;-0.60;89.80
360;DHT22;168;48.872;9.226;2023-02-28T01:50:22;-0.50;89.60
360;DHT22;168;48.872;9.226;2023-02-28T01:52:51;-0.60;89.60
360;DHT22;168;48.872;9.226;2023-02-28T01:55:20;-0.70;90.10
360;DHT22;168;48.872;9.226;2023-02-28T01:57:50;-0.60;90.10
360;DHT22;168;48.872;9.226;2023-02-28T02:00:22;-0.60;89.90
360;DHT22;168;48.872;9.226;2023-02-28T02:02:53;-0.60;90.00
360;DHT22;168;48.872;9.226;2023-02-28T02:05:24;-0.60;89.80
360;DHT22;168;48.872;9.226;2023-02-28T02:07:54;-0.60;90.20
360;DHT22;168;48.872;9.226;2023-02-28T02:10:26;-0.60;90.40
360;DHT22;168;48.872;9.226;2023-02-28T02:13:19;-0.60;90.40
360;DHT22;168;48.872;9.226;2023-02-28T02:16:00;-0.60;90.60
360;DHT22;168;48.872;9.226;2023-02-28T02:18:34;-0.70;90.50
360;DHT22;168;48.872;9.226;2023-02-28T02:21:39;-0.60;91.00
360;DHT22;168;48.872;9.226;2023-02-28T02:24:42;-0.50;90.20
360;DHT22;168;48.872;9.226;2023-02-28T02:27:39;-0.50;90.10
360;DHT22;168;48.872;9.226;2023-02-28T02:30:33;-0.50;90.50
360;DHT22;168;48.872;9.226;2023-02-28T02:33:39;-0.60;90.90
360;DHT22;168;48.872;9.226;2023-02-28T02:36:19;-0.50;90.80
360;DHT22;168;48.872;9.226;2023-02-28T02:38:51;-0.60;90.80
360;DHT22;168;48.872;9.226;2023-02-28T02:41:24;-0.60;91.70
360;DHT22;168;48.872;9.226;2023-02-28T02:43:58;-0.60;91.50
360;DHT22;168;48.872;9.226;2023-02-28T02:46:32;-0.50;91.50
360;DHT22;168;48.872;9.226;2023-02-28T02:49:02;-0.50;92.00
360;DHT22;168;48.872;9.226;2023-02-28T02:51:33;-0.60;92.30
360;DHT22;168;48.872;9.226;2023-02-28T02:54:04;-0.40;92.30
360;DHT22;168;48.872;9.226;2023-02-28T02:56:34;-0.40;92.30
360;DHT22;168;48.872;9.226;2023-02-28T02:59:06;-0.40;92.10
360;DHT22;168;48.872;9.226;2023-02-28T03:01:36;-0.30;92.40
360;DHT22;168;48.872;9.226;2023-02-28T03:04:09;-0.30;92.20
360;DHT22;168;48.872;9.226;2023-02-28T03:06:39;-0.30;92.20
360;DHT22;168;48.872;9.226;2023-02-28T03:09:06;-0.30;92.20
360;DHT22;168;48.872;9.226;2023-02-28T03:11:35;-0.30;92.20
360;DHT22;168;48.872;9.226;2023-02-28T03:14:10;-0.20;92.10
360;DHT22;168;48.872;9.226;2023-02-28T03:16:56;-0.20;92.20
360;DHT22;168;48.872;9.226;2023-02-28T03:19:47;-0.20;92.30
360;DHT22;168;48.872;9.226;2023-02-28T03:22:38;-0.20;92.30
360;DHT22;168;48.872;9.226;2023-02-28T03:25:09;-0.10;92.10
360;DHT22;168;48.872;9.226;2023-02-28T03:27:41;-0.10;91.90
360;DHT22;168;48.872;9.226;2023-02-28T03:30:15;0.00;91.50
360;DHT22;168;48.872;9.226;2023-02-28T03:32:52;0.10;91.60
360;DHT22;168;48.872;9.226;2023-02-28T03:35:22;0.00;91.30
360;DHT22;168;48.872;9.226;2023-02-28T03:37:55;0.00;91.80
360;DHT22;168;48.872;9.226;2023-02-28T03:40:28;0.00;92.00
360;DHT22;168;48.872;9.226;2023-02-28T03:43:01;0.10;91.60
360;DHT22;168;48.872;9.226;2023-02-28T03:45:29;0.10;91.30
360;DHT22;168;48.872;9.226;2023-02-28T03:48:02;0.20;91.00
360;DHT22;168;48.872;9.226;2023-02-28T03:50:35;0.20;91.00
360;DHT22;168;48.872;9.226;2023-02-28T03:53:08;0.10;91.20
360;DHT22;168;48.872;9.226;2023-02-28T03:55:39;0.20;91.60
360;DHT22;168;48.872;9.226;2023-02-28T03:58:12;0.20;91.50
360;DHT22;168;48.872;9.226;2023-02-28T04:00:45;0.30;91.10
360;DHT22;168;48.872;9.226;2023-02-28T04:03:13;0.30;91.20
360;DHT22;168;48.872;9.226;2023-02-28T04:05:48;0.40;90.90
360;DHT22;168;48.872;9.226;2023-02-28T04:08:18;0.50;90.40
360;DHT22;168;48.872;9.226;2023-02-28T04:10:50;0.50;90.50
360;DHT22;168;48.872;9.226;2023-02-28T04:13:18;0.50;90.40
360;DHT22;168;48.872;9.226;2023-02-28T04:15:46;0.50;90.20
360;DHT22;168;48.872;9.226;2023-02-28T04:18:13;0.50;90.80
360;DHT22;168;48.872;9.226;2023-02-28T04:20:40;0.50;90.20
360;DHT22;168;48.872;9.226;2023-02-28T04:23:08;0.60;89.80
360;DHT22;168;48.872;9.226;2023-02-28T04:25:36;0.60;90.00
360;DHT22;168;48.872;9.226;2023-02-28T04:28:06;0.60;89.30
360;DHT22;168;48.872;9.226;2023-02-28T04:30:33;0.70;89.20
360;DHT22;168;48.872;9.226;2023-02-28T04:33:01;0.60;89.80
360;DHT22;168;48.872;9.226;2023-02-28T04:35:28;0.60;89.30
360;DHT22;168;48.872;9.226;2023-02-28T04:37:55;0.60;89.70
360;DHT22;168;48.872;9.226;2023-02-28T04:40:22;0.60;89.70
360;DHT22;168;48.872;9.226;2023-02-28T04:42:51;0.50;90.00
360;DHT22;168;48.872;9.226;2023-02-28T04:45:18;0.50;90.50
360;DHT22;168;48.872;9.226;2023-02-28T04:47:46;0.50;90.40
360;DHT22;168;48.872;9.226;2023-02-28T04:50:13;0.60;89.90
360;DHT22;168;48.872;9.226;2023-02-28T04:52:41;0.60;89.60
360;DHT22;168;48.872;9.226;2023-02-28T04:55:09;0.60;89.70
360;DHT22;168;48.872;9.226;2023-02-28T04:57:36;0.60;90.00
360;DHT22;168;48.872;9.226;2023-02-28T05:00:06;0.60;90.10
360;DHT22;168;48.872;9.226;2023-02-28T05:02:37;0.60;90.00
360;DHT22;168;48.872;9.226;2023-02-28T05:05:05;0.50;90.20
360;DHT22;168;48.872;9.226;2023-02-28T05:07:33;0.50;90.60
360;DHT22;168;48.872;9.226;2023-02-28T05:10:00;0.50;90.80
360;DHT22;168;48.872;9.226;2023-02-28T05:12:28;0.60;90.30
360;DHT22;168;48.872;9.226;2023-02-28T05:14:56;0.60;89.70
360;DHT22;168;48.872;9.226;2023-02-28T05:17:24;0.60;90.10
360;DHT22;168;48.872;9.226;2023-02-28T05:19:52;0.60;90.30
360;DHT22;168;48.872;9.226;2023-02-28T05:22:19;0.60;90.40
360;DHT22;168;48.872;9.226;2023-02-28T05:24:46;0.60;89.90
360;DHT22;168;48.872;9.226;2023-02-28T05:27:14;0.60;90.00
360;DHT22;168;48.872;9.226;2023-02-28T05:29:41;0.70;90.30
360;DHT22;168;48.872;9.226;2023-02-28T05:32:12;0.80;89.30
360;DHT22;168;48.872;9.226;2023-02-28T05:34:41;0.80;89.60
360;DHT22;168;48.872;9.226;2023-02-28T05:37:12;0.80;89.30
360;DHT22;168;48.872;9.226;2023-02-28T05:39:39;0.90;89.20
360;DHT22;168;48.872;9.226;2023-02-28T05:42:07;0.80;89.00
360;DHT22;168;48.872;9.226;2023-02-28T05:44:35;0.90;88.50
360;DHT22;168;48.872;9.226;2023-02-28T05:47:02;0.80;88.50
360;DHT22;168;48.872;9.226;2023-02-28T05:49:30;0.80;89.20
360;DHT22;168;48.872;9.226;2023-02-28T05:51:59;0.80;89.00
360;DHT22;168;48.872;9.226;2023-02-28T05:54:26;0.80;88.70
360;DHT22;168;48.872;9.226;2023-02-28T05:56:53;0.90;88.40
360;DHT22;168;48.872;9.226;2023-02-28T05:59:21;0.80;88.60
360;DHT22;168;48.872;9.226;2023-02-28T06:01:48;0.70;89.20
360;DHT22;168;48.872;9.226;2023-02-28T06:04:17;0.80;89.20
360;DHT22;168;48.872;9.226;2023-02-28T06:06:45;1.00;88.00
360;DHT22;168;48.872;9.226;2023-02-28T06:09:14;0.90;88.00
360;DHT22;168;48.872;9.226;2023-02-28T06:11:42;0.90;88.10
360;DHT22;168;48.872;9.226;2023-02-28T06:14:14;1.00;87.80
360;DHT22;168;48.872;9.226;2023-02-28T06:16:41;1.00;87.60
360;DHT22;168;48.872;9.226;2023-02-28T06:19:09;0.90;87.80
360;DHT22;168;48.872;9.226;2023-02-28T06:21:37;1.00;87.70
360;DHT22;168;48.872;9.226;2023-02-28T06:24:05;0.90;87.90
360;DHT22;168;48.872;9.226;2023-02-28T06:26:33;1.00;88.10
360;DHT22;168;48.872;9.226;2023-02-28T06:29:01;1.00;87.30
360;DHT22;168;48.872;9.226;2023-02-28T06:31:29;1.00;87.40
360;DHT22;168;48.872;9.226;2023-02-28T06:33:56;1.10;87.20
360;DHT22;168;48.872;9.226;2023-02-28T06:36:23;1.10;87.00
360;DHT22;168;48.872;9.226;2023-02-28T06:38:51;1.10;86.80
360;DHT22;168;48.872;9.226;2023-02-28T06:41:21;1.20;86.60
360;DHT22;168;48.872;9.226;2023-02-28T06:43:50;1.10;86.80
360;DHT22;168;48.872;9.226;2023-02-28T06:46:18;1.20;86.60
360;DHT22;168;48.872;9.226;2023-02-28T06:48:45;1.30;86.30
360;DHT22;168;48.872;9.226;2023-02-28T06:51:15;1.30;86.30
360;DHT22;168;48.872;9.226;2023-02-28T06:53:43;1.30;85.50
360;DHT22;168;48.872;9.226;2023-02-28T06:56:11;1.30;85.80
360;DHT22;168;48.872;9.226;2023-02-28T06:58:40;1.30;85.80
360;DHT22;168;48.872;9.226;2023-02-28T07:01:09;1.40;85.90
360;DHT22;168;48.872;9.226;2023-02-28T07:03:36;1.40;85.80
360;DHT22;168;48.872;9.226;2023-02-28T07:06:04;1.50;85.70
360;DHT22;168;48.872;9.226;2023-02-28T07:08:33;1.50;85.30
360;DHT22;168;48.872;9.226;2023-02-28T07:11:00;1.60;85.10
360;DHT22;168;48.872;9.226;2023-02-28T07:13:28;1.60;84.20
360;DHT22;168;48.872;9.226;2023-02-28T07:15:56;1.50;85.00
360;DHT22;168;48.872;9.226;2023-02-28T07:18:25;1.50;84.40
360;DHT22;168;48.872;9.226;2023-02-28T07:20:53;1.50;84.30
360;DHT22;168;48.872;9.226;2023-02-28T07:23:21;1.50;84.70
360;DHT22;168;48.872;9.226;2023-02-28T07:25:49;1.50;84.30
360;DHT22;168;48.872;9.226;2023-02-28T07:28:16;1.50;84.60
360;DHT22;168;48.872;9.226;2023-02-28T07:30:43;1.50;84.20
360;DHT22;168;48.872;9.226;2023-02-28T07:33:11;1.50;84.20
360;DHT22;168;48.872;9.226;2023-02-28T07:35:40;1.50;84.50
360;DHT22;168;48.872;9.226;2023-02-28T07:38:07;1.50;84.60
360;DHT22;168;48.872;9.226;2023-02-28T07:40:36;1.60;84.40
360;DHT22;168;48.872;9.226;2023-02-28T07:43:04;1.60;83.40
360;DHT22;168;48.872;9.226;2023-02-28T07:45:31;1.60;84.10
360;DHT22;168;48.872;9.226;2023-02-28T07:48:00;1.60;84.20
360;DHT22;168;48.872;9.226;2023-02-28T07:50:28;1.60;83.80
360;DHT22;168;48.872;9.226;2023-02-28T07:52:58;1.60;84.10
360;DHT22;168;48.872;9.226;2023-02-28T07:55:26;1.60;84.30
360;DHT22;168;48.872;9.226;2023-02-28T07:57:53;1.60;84.30
360;DHT22;168;48.872;9.226;2023-02-28T08:00:21;1.80;83.50
360;DHT22;168;48.872;9.226;2023-02-28T08:02:49;1.80;83.20
360;DHT22;168;48.872;9.226;2023-02-28T08:05:17;1.80;83.60
360;DHT22;168;48.872;9.226;2023-02-28T08:07:44;1.80;83.50
360;DHT22;168;48.872;9.226;2023-02-28T08:10:15;1.80;83.90
360;DHT22;168;48.872;9.226;2023-02-28T08:12:42;1.80;83.90
360;DHT22;168;48.872;9.226;2023-02-28T08:15:10;2.00;82.70
360;DHT22;168;48.872;9.226;2023-02-28T08:17:37;2.00;81.80
360;DHT22;168;48.872;9.226;2023-02-28T08:20:06;2.00;82.30
360;DHT22;168;48.872;9.226;2023-02-28T08:22:36;2.00;82.50
360;DHT22;168;48.872;9.226;2023-02-28T08:25:04;2.00;82.60
360;DHT22;168;48.872;9.226;2023-02-28T08:27:35;2.00;82.50
360;DHT22;168;48.872;9.226;2023-02-28T08:30:03;2.00;82.80
360;DHT22;168;48.872;9.226;2023-02-28T08:32:32;2.10;82.40
360;DHT22;168;48.872;9.226;2023-02-28T08:34:59;2.20;82.00
360;DHT22;168;48.872;9.226;2023-02-28T08:37:27;2.20;81.80
360;DHT22;168;48.872;9.226;2023-02-28T08:39:55;2.30;81.80
360;DHT22;168;48.872;9.226;2023-02-28T08:42:22;2.30;81.50
360;DHT22;168;48.872;9.226;2023-02-28T08:44:51;2.40;81.20
360;DHT22;168;48.872;9.226;2023-02-28T08:47:19;2.50;80.90
360;DHT22;168;48.872;9.226;2023-02-28T08:49:46;2.60;80.70
360;DHT22;168;48.872;9.226;2023-02-28T08:52:14;2.70;80.20
360;DHT22;168;48.872;9.226;2023-02-28T08:54:41;2.80;80.10
360;DHT22;168;48.872;9.226;2023-02-28T08:57:08;2.90;79.30
360;DHT22;168;48.872;9.226;2023-02-28T08:59:36;2.90;79.30
360;DHT22;168;48.872;9.226;2023-02-28T09:02:05;3.00;78.80
360;DHT22;168;48.872;9.226;2023-02-28T09:04:33;3.00;78.60
360;DHT22;168;48.872;9.226;2023-02-28T09:07:01;3.10;79.00
360;DHT22;168;48.872;9.226;2023-02-28T09:09:28;3.20;77.90
360;DHT22;168;48.872;9.226;2023-02-28T09:11:56;3.20;77.10
360;DHT22;168;48.872;9.226;2023-02-28T09:14:23;3.30;77.20
360;DHT22;168;48.872;9.226;2023-02-28T09:16:51;3.30;77.20
360;DHT22;168;48.872;9.226;2023-02-28T09:19:19;3.30;76.80
360;DHT22;168;48.872;9.226;2023-02-28T09:21:47;3.40;76.30
360;DHT22;168;48.872;9.226;2023-02-28T09:24:14;3.40;77.10
360;DHT22;168;48.872;9.226;2023-02-28T09:26:41;3.50;77.50
360;DHT22;168;48.872;9.226;2023-02-28T09:29:09;3.80;76.30
360;DHT22;168;48.872;9.226;2023-02-28T09:31:37;3.90;75.10
360;DHT22;168;48.872;9.226;2023-02-28T09:34:04;4.00;74.50
360;DHT22;168;48.872;9.226;2023-02-28T09:36:33;4.20;73.80
360;DHT22;168;48.872;9.226;2023-02-28T09:39:01;4.30;73.90
360;DHT22;168;48.872;9.226;2023-02-28T09:41:37;4.40;74.00
360;DHT22;168;48.872;9.226;2023-02-28T09:44:18;4.60;73.20
360;DHT22;168;48.872;9.226;2023-02-28T09:46:51;4.70;71.30
360;DHT22;168;48.872;9.226;2023-02-28T09:49:24;4.80;71.30
360;DHT22;168;48.872;9.226;2023-02-28T09:51:57;4.90;70.70
360;DHT22;168;48.872;9.226;2023-02-28T09:54:29;4.90;71.00
360;DHT22;168;48.872;9.226;2023-02-28T09:56:58;5.00;69.40
360;DHT22;168;48.872;9.226;2023-02-28T09:59:51;5.00;69.20
360;DHT22;168;48.872;9.226;2023-02-28T10:05:14;5.00;68.20
360;DHT22;168;48.872;9.226;2023-02-28T10:07:53;5.10;69.10
360;DHT22;168;48.872;9.226;2023-02-28T10:10:27;5.10;68.70
360;DHT22;168;48.872;9.226;2023-02-28T10:12:58;5.20;68.50
360;DHT22;168;48.872;9.226;2023-02-28T10:15:31;5.30;67.80
360;DHT22;168;48.872;9.226;2023-02-28T10:18:02;5.40;67.80
360;DHT22;168;48.872;9.226;2023-02-28T10:20:34;5.60;67.60
360;DHT22;168;48.872;9.226;2023-02-28T10:23:11;5.70;67.10
360;DHT22;168;48.872;9.226;2023-02-28T10:25:40;5.90;66.10
360;DHT22;168;48.872;9.226;2023-02-28T10:28:11;6.00;66.40
360;DHT22;168;48.872;9.226;2023-02-28T10:30:42;6.00;66.20
360;DHT22;168;48.872;9.226;2023-02-28T10:33:19;6.10;65.60
360;DHT22;168;48.872;9.226;2023-02-28T10:35:48;6.20;65.50
360;DHT22;168;48.872;9.226;2023-02-28T10:38:19;6.20;65.50
360;DHT22;168;48.872;9.226;2023-02-28T10:40:47;6.30;65.40
360;DHT22;168;48.872;9.226;2023-02-28T10:43:21;6.30;64.90
360;DHT22;168;48.872;9.226;2023-02-28T10:46:01;6.30;64.60
360;DHT22;168;48.872;9.226;2023-02-28T10:48:37;6.30;64.70
360;DHT22;168;48.872;9.226;2023-02-28T10:51:06;6.40;65.10
360;DHT22;168;48.872;9.226;2023-02-28T10:53:40;6.50;64.30
360;DHT22;168;48.872;9.226;2023-02-28T10:56:16;6.70;64.50
360;DHT22;168;48.872;9.226;2023-02-28T10:58:49;6.80;64.50
360;DHT22;168;48.872;9.226;2023-02-28T11:01:19;6.90;63.90
360;DHT22;168;48.872;9.226;2023-02-28T11:03:48;7.00;64.00
360;DHT22;168;48.872;9.226;2023-02-28T11:06:17;7.20;63.90
360;DHT22;168;48.872;9.226;2023-02-28T11:08:49;7.40;63.00
360;DHT22;168;48.872;9.226;2023-02-28T11:11:19;7.50;63.00
360;DHT22;168;48.872;9.226;2023-02-28T11:13:47;7.60;62.90
360;DHT22;168;48.872;9.226;2023-02-28T11:16:17;7.70;62.10
360;DHT22;168;48.872;9.226;2023-02-28T11:18:48;7.70;62.30
360;DHT22;168;48.872;9.226;2023-02-28T11:21:20;7.70;61.90
360;DHT22;168;48.872;9.226;2023-02-28T11:23:52;7.70;61.60
360;DHT22;168;48.872;9.226;2023-02-28T11:26:58;7.60;62.30
360;DHT22;168;48.872;9.226;2023-02-28T11:29:46;7.60;62.70
360;DHT22;168;48.872;9.226;2023-02-28T11:32:19;7.70;62.60
360;DHT22;168;48.872;9.226;2023-02-28T11:35:14;7.80;62.50
360;DHT22;168;48.872;9.226;2023-02-28T11:37:44;8.00;62.20
360;DHT22;168;48.872;9.226;2023-02-28T11:40:14;8.10;60.90
360;DHT22;168;48.872;9.226;2023-02-28T11:42:53;8.10;60.60
360;DHT22;168;48.872;9.226;2023-02-28T11:45:34;8.20;60.80
360;DHT22;168;48.872;9.226;2023-02-28T11:48:09;8.20;60.60
360;DHT22;168;48.872;9.226;2023-02-28T11:50:47;8.20;60.40
360;DHT22;168;48.872;9.226;2023-02-28T11:53:22;8.30;60.20
360;DHT22;168;48.872;9.226;2023-02-28T11:55:56;8.20;60.40
360;DHT22;168;48.872;9.226;2023-02-28T11:58:32;8.20;60.60
360;DHT22;168;48.872;9.226;2023-02-28T12:01:11;8.10;61.20
360;DHT22;168;48.872;9.226;2023-02-28T12:03:56;8.10;61.00
360;DHT22;168;48.872;9.226;2023-02-28T12:06:30;8.10;60.30
360;DHT22;168;48.872;9.226;2023-02-28T12:09:04;8.10;60.50
360;DHT22;168;48.872;9.226;2023-02-28T12:11:47;8.20;60.20
360;DHT22;168;48.872;9.226;2023-02-28T12:14:29;8.10;60.40
360;DHT22;168;48.872;9.226;2023-02-28T12:17:13;8.20;59.70
360;DHT22;168;48.872;9.226;2023-02-28T12:19:47;8.00;60.00
360;DHT22;168;48.872;9.226;2023-02-28T12:22:23;7.90;60.30
360;DHT22;168;48.872;9.226;2023-02-28T12:25:27;8.00;61.20
360;DHT22;168;48.872;9.226;2023-02-28T12:28:03;8.00;61.40
360;DHT22;168;48.872;9.226;2023-02-28T12:30:33;8.10;60.40
360;DHT22;168;48.872;9.226;2023-02-28T12:33:06;8.20;60.10
360;DHT22;168;48.872;9.226;2023-02-28T12:35:37;8.20;60.80
360;DHT22;168;48.872;9.226;2023-02-28T12:38:08;8.30;59.80
360;DHT22;168;48.872;9.226;2023-02-28T12:40:44;8.30;59.50
360;DHT22;168;48.872;9.226;2023-02-28T12:43:17;8.20;59.50
360;DHT22;168;48.872;9.226;2023-02-28T12:45:48;8.30;60.10
360;DHT22;168;48.872;9.226;2023-02-28T12:48:21;8.30;59.80
360;DHT22;168;48.872;9.226;2023-02-28T12:50:51;8.20;59.50
360;DHT22;168;48.872;9.226;2023-02-28T12:53:23;8.20;59.10
360;DHT22;168;48.872;9.226;2023-02-28T12:56:07;8.10;59.60
360;DHT22;168;48.872;9.226;2023-02-28T12:58:54;8.00;60.40
360;DHT22;168;48.872;9.226;2023-02-28T13:01:36;7.90;60.00
360;DHT22;168;48.872;9.226;2023-02-28T13:04:31;7.90;60.80
360;DHT22;168;48.872;9.226;2023-02-28T13:07:44;7.90;60.80
360;DHT22;168;48.872;9.226;2023-02-28T13:10:17;8.00;60.40
360;DHT22;168;48.872;9.226;2023-02-28T13:12:49;8.00;59.40
360;DHT22;168;48.872;9.226;2023-02-28T13:15:21;7.90;59.80
360;DHT22;168;48.872;9.226;2023-02-28T13:17:52;7.80;60.40
360;DHT22;168;48.872;9.226;2023-02-28T13:20:23;7.70;60.10
360;DHT22;168;48.872;9.226;2023-02-28T13:22:51;7.70;60.50
360;DHT22;168;48.872;9.226;2023-02-28T13:25:52;7.60;60.80
360;DHT22;168;48.872;9.226;2023-02-28T13:31:27;7.50;60.70
360;DHT22;168;48.872;9.226;2023-02-28T13:34:15;7.50;61.20
360;DHT22;168;48.872;9.226;2023-02-28T13:36:43;7.60;61.60
360;DHT22;168;48.872;9.226;2023-02-28T13:39:47;7.60;61.30
360;DHT22;168;48.872;9.226;2023-02-28T13:42:33;7.80;60.90
360;DHT22;168;48.872;9.226;2023-02-28T13:45:26;7.90;60.70
360;DHT22;168;48.872;9.226;2023-02-28T13:48:01;8.00;60.00
360;DHT22;168;48.872;9.226;2023-02-28T13:50:32;8.00;60.00
360;DHT22;168;48.872;9.226;2023-02-28T13:56:30;8.00;60.10
360;DHT22;168;48.872;9.226;2023-02-28T13:59:06;8.10;60.10
360;DHT22;168;48.872;9.226;2023-02-28T14:01:51;8.10;59.40
360;DHT22;168;48.872;9.226;2023-02-28T14:04:53;7.90;60.00
360;DHT22;168;48.872;9.226;2023-02-28T14:07:27;7.80;60.30
360;DHT22;168;48.872;9.226;2023-02-28T14:09:59;7.70;61.00
360;DHT22;168;48.872;9.226;2023-02-28T14:12:53;7.70;61.70
360;DHT22;168;48.872;9.226;2023-02-28T14:15:55;7.90;61.00
360;DHT22;168;48.872;9.226;2023-02-28T14:18:27;8.00;60.80
360;DHT22;168;48.872;9.226;2023-02-28T14:21:01;8.00;60.40
360;DHT22;168;48.872;9.226;2023-02-28T14:23:55;8.00;60.40
360;DHT22;168;48.872;9.226;2023-02-28T14:26:45;8.00;60.70
360;DHT22;168;48.872;9.226;2023-02-28T14:29:34;8.00;60.70
360;DHT22;168;48.872;9.226;2023-02-28T14:32:10;8.20;60.40
360;DHT22;168;48.872;9.226;2023-02-28T14:34:44;8.30;60.20
360;DHT22;168;48.872;9.226;2023-02-28T14:37:20;8.30;60.90
360;DHT22;168;48.872;9.226;2023-02-28T14:39:51;8.40;60.00
360;DHT22;168;48.872;9.226;2023-02-28T14:42:29;8.40;60.20
360;DHT22;168;48.872;9.226;2023-02-28T14:44:57;8.50;60.10
360;DHT22;168;48.872;9.226;2023-02-28T14:47:28;8.60;60.00
360;DHT22;168;48.872;9.226;2023-02-28T14:49:58;8.70;59.40
360;DHT22;168;48.872;9.226;2023-02-28T14:52:29;8.70;58.40
360;DHT22;168;48.872;9.226;2023-02-28T14:54:59;8.70;59.00
360;DHT22;168;48.872;9.226;2023-02-28T14:57:29;8.80;59.70
360;DHT22;168;48.872;9.226;2023-02-28T15:00:04;8.80;59.10
360;DHT22;168;48.872;9.226;2023-02-28T15:02:37;8.80;59.30
360;DHT22;168;48.872;9.226;2023-02-28T15:05:24;8.80;59.30
360;DHT22;168;48.872;9.226;2023-02-28T15:08:06;8.90;59.00
360;DHT22;168;48.872;9.226;2023-02-28T15:10:38;8.90;59.20
360;DHT22;168;48.872;9.226;2023-02-28T15:13:09;8.90;58.90
360;DHT22;168;48.872;9.226;2023-02-28T15:15:46;8.90;58.80
360;DHT22;168;48.872;9.226;2023-02-28T15:18:22;8.80;59.00
360;DHT22;168;48.872;9.226;2023-02-28T15:21:02;8.80;59.10
360;DHT22;168;48.872;9.226;2023-02-28T15:23:36;8.80;59.20
360;DHT22;168;48.872;9.226;2023-02-28T15:26:04;8.90;59.90
360;DHT22;168;48.872;9.226;2023-02-28T15:28:37;9.00;59.00
360;DHT22;168;48.872;9.226;2023-02-28T15:31:28;9.00;58.90
360;DHT22;168;48.872;9.226;2023-02-28T15:34:20;9.00;59.30
360;DHT22;168;48.872;9.226;2023-02-28T15:36:56;9.00;59.30
360;DHT22;168;48.872;9.226;2023-02-28T15:39:41;9.00;59.20
360;DHT22;168;48.872;9.226;2023-02-28T15:42:20;8.90;59.50
360;DHT22;168;48.872;9.226;2023-02-28T15:44:51;8.80;59.30
360;DHT22;168;48.872;9.226;2023-02-28T15:47:22;8.70;59.40
360;DHT22;168;48.872;9.226;2023-02-28T15:49:59;8.60;59.40
360;DHT22;168;48.872;9.226;2023-02-28T15:53:04;8.40;60.40
360;DHT22;168;48.872;9.226;2023-02-28T15:56:00;8.30;60.80
360;DHT22;168;48.872;9.226;2023-02-28T16:02:42;8.30;61.40
360;DHT22;168;48.872;9.226;2023-02-28T16:05:31;8.20;61.90
360;DHT22;168;48.872;9.226;2023-02-28T16:08:01;8.20;61.70
360;DHT22;168;48.872;9.226;2023-02-28T16:14:21;8.30;61.70
360;DHT22;168;48.872;9.226;2023-02-28T16:17:20;8.30;61.40
360;DHT22;168;48.872;9.226;2023-02-28T16:19:49;8.20;61.50
360;DHT22;168;48.872;9.226;2023-02-28T16:22:19;8.30;61.40
360;DHT22;168;48.872;9.226;2023-02-28T16:24:47;8.30;61.60
360;DHT22;168;48.872;9.226;2023-02-28T16:27:30;8.30;61.80
360;DHT22;168;48.872;9.226;2023-02-28T16:30:17;8.20;61.90
360;DHT22;168;48.872;9.226;2023-02-28T16:33:10;8.20;61.50
360;DHT22;168;48.872;9.226;2023-02-28T16:35:51;8.20;61.70
360;DHT22;168;48.872;9.226;2023-02-28T16:38:26;8.10;61.90
360;DHT22;168;48.872;9.226;2023-02-28T16:41:13;8.00;62.30
360;DHT22;168;48.872;9.226;2023-02-28T16:44:27;7.80;62.80
360;DHT22;168;48.872;9.226;2023-02-28T16:47:24;7.60;63.40
360;DHT22;168;48.872;9.226;2023-02-28T16:49:57;7.40;64.10
360;DHT22;168;48.872;9.226;2023-02-28T16:52:33;7.20;64.30
360;DHT22;168;48.872;9.226;2023-02-28T16:55:00;6.90;64.80
360;DHT22;168;48.872;9.226;2023-02-28T16:57:28;6.70;65.50
360;DHT22;168;48.872;9.226;2023-02-28T17:00:10;6.50;65.80
360;DHT22;168;48.872;9.226;2023-02-28T17:03:00;6.40;66.30
360;DHT22;168;48.872;9.226;2023-02-28T17:05:34;6.20;66.90
360;DHT22;168;48.872;9.226;2023-02-28T17:08:04;6.00;67.20
360;DHT22;168;48.872;9.226;2023-02-28T17:10:32;5.90;67.50
360;DHT22;168;48.872;9.226;2023-02-28T17:13:00;5.70;68.00
360;DHT22;168;48.872;9.226;2023-02-28T17:15:31;5.60;68.50
360;DHT22;168;48.872;9.226;2023-02-28T17:18:00;5.50;68.60
360;DHT22;168;48.872;9.226;2023-02-28T17:20:29;5.40;68.90
360;DHT22;168;48.872;9.226;2023-02-28T17:22:58;5.20;69.30
360;DHT22;168;48.872;9.226;2023-02-28T17:25:26;5.10;69.90
360;DHT22;168;48.872;9.226;2023-02-28T17:31:12;5.00;70.40
360;DHT22;168;48.872;9.226;2023-02-28T17:33:50;4.80;70.80
360;DHT22;168;48.872;9.226;2023-02-28T17:36:25;4.80;71.20
360;DHT22;168;48.872;9.226;2023-02-28T17:38:53;4.70;71.40
360;DHT22;168;48.872;9.226;2023-02-28T17:41:21;4.50;71.90
360;DHT22;168;48.872;9.226;2023-02-28T17:43:50;4.50;72.30
360;DHT22;168;48.872;9.226;2023-02-28T17:46:20;4.40;72.40
360;DHT22;168;48.872;9.226;2023-02-28T17:48:48;4.40;72.50
360;DHT22;168;48.872;9.226;2023-02-28T17:51:21;4.30;72.80